Time;durP1;ratioP1;P1;durP2;ratioP2;P2;SDS_P1;SDS_P2;PMS_P1;PMS_P2;Temp;Humidity;BMP_temperature;BMP_pressure;BME280_temperature;BME280_humidity;BME280_pressure;Samples;Min_cycle;Max_cycle;Signal;HPM_P1;HPM_P2
2021/03/17 00:01:39;;;;;;;4.78;2.60;;;;;;;0.68;88.58;96580.94;5051135;28;20037;-72
2021/03/17 00:04:06;;;;;;;6.40;3.15;;;;;;;0.68;88.38;96572.06;5052141;28;20052;-73
2021/03/17 00:06:32;;;;;;;5.05;3.10;;;;;;;0.64;88.25;96571.75;5051222;28;20056;-73
2021/03/17 00:08:58;;;;;;;4.95;3.08;;;;;;;0.70;88.26;96576.13;5052059;28;20045;-72
2021/03/17 00:11:24;;;;;;;5.72;3.03;;;;;;;0.71;88.13;96579.59;5050452;28;20076;-73
2021/03/17 00:13:50;;;;;;;6.53;3.15;;;;;;;0.76;88.04;96577.00;5051694;28;20511;-73
2021/03/17 00:16:16;;;;;;;7.78;3.95;;;;;;;0.79;87.98;96576.50;5051017;28;20053;-73
2021/03/17 00:18:42;;;;;;;9.02;3.90;;;;;;;0.82;87.77;96583.22;5065691;28;20046;-72
2021/03/17 00:21:09;;;;;;;6.53;3.70;;;;;;;0.84;87.79;96570.41;5069058;28;20128;-73
2021/03/17 00:23:35;;;;;;;8.40;4.18;;;;;;;0.85;87.49;96574.69;5070916;28;20105;-72
2021/03/17 00:26:01;;;;;;;9.07;4.25;;;;;;;0.83;87.46;96566.06;5071677;28;20488;-73
2021/03/17 00:28:27;;;;;;;8.05;4.45;;;;;;;0.80;87.28;96563.91;5055618;28;20048;-72
2021/03/17 00:30:53;;;;;;;9.25;4.70;;;;;;;0.77;87.34;96566.00;5051701;28;20071;-72
2021/03/17 00:33:19;;;;;;;10.48;5.35;;;;;;;0.73;87.71;96548.00;5050269;28;20072;-72
2021/03/17 00:35:47;;;;;;;14.48;6.00;;;;;;;0.73;87.74;96554.19;5051560;28;20107;-72
2021/03/17 00:38:13;;;;;;;12.45;5.72;;;;;;;0.69;87.72;96546.91;5050431;28;20040;-72
2021/03/17 00:40:39;;;;;;;13.52;5.50;;;;;;;0.66;87.74;96545.50;5051184;28;20094;-72
2021/03/17 00:43:05;;;;;;;8.30;4.68;;;;;;;0.62;87.68;96547.06;5050726;28;20447;-73
2021/03/17 00:45:32;;;;;;;7.63;4.22;;;;;;;0.65;87.76;96554.63;5050759;28;20053;-72
2021/03/17 00:47:58;;;;;;;9.57;4.50;;;;;;;0.75;87.75;96548.56;5059474;28;20071;-72
2021/03/17 00:50:25;;;;;;;6.18;3.42;;;;;;;0.75;87.46;96552.06;5069819;28;20048;-72
2021/03/17 00:52:51;;;;;;;6.15;3.15;;;;;;;0.82;87.06;96553.72;5069214;28;20109;-72
2021/03/17 00:55:18;;;;;;;5.65;2.80;;;;;;;0.83;86.83;96558.84;5069796;28;20049;-72
2021/03/17 00:57:44;;;;;;;5.18;3.20;;;;;;;0.83;86.64;96547.31;5062488;28;20048;-72
2021/03/17 01:00:12;;;;;;;6.95;3.20;;;;;;;0.83;86.48;96561.50;5049898;28;20124;-72
2021/03/17 01:02:38;;;;;;;5.63;3.00;;;;;;;0.91;86.52;96560.28;5050900;28;20048;-72
2021/03/17 01:05:06;;;;;;;6.65;3.35;;;;;;;0.91;86.57;96560.28;5050339;28;20049;-73
2021/03/17 01:07:32;;;;;;;8.20;3.88;;;;;;;0.79;86.95;96557.75;5050240;28;20527;-72
2021/03/17 01:09:58;;;;;;;7.35;4.20;;;;;;;0.78;87.21;96548.88;5050688;28;20512;-71
2021/03/17 01:12:25;;;;;;;7.18;3.72;;;;;;;0.87;87.27;96543.06;5049208;28;20459;-72
2021/03/17 01:14:52;;;;;;;7.05;4.20;;;;;;;0.95;87.26;96546.13;5051034;28;20041;-71
2021/03/17 01:17:18;;;;;;;8.50;5.00;;;;;;;0.94;87.02;96543.66;5051495;28;20048;-72
2021/03/17 01:19:44;;;;;;;9.63;5.38;;;;;;;0.88;87.42;96536.63;5070314;28;20411;-72
2021/03/17 01:22:10;;;;;;;9.43;5.50;;;;;;;0.89;87.48;96532.88;5066647;28;20052;-72
2021/03/17 01:24:36;;;;;;;10.43;6.45;;;;;;;0.83;87.67;96536.59;5070732;28;20495;-72
2021/03/17 01:27:02;;;;;;;12.32;6.15;;;;;;;0.84;87.84;96532.88;5066734;28;20044;-73
2021/03/17 01:29:29;;;;;;;13.40;6.75;;;;;;;0.87;87.79;96529.66;5050594;28;20048;-72
2021/03/17 01:31:55;;;;;;;10.50;6.35;;;;;;;0.85;87.85;96518.38;5050880;28;20060;-72
2021/03/17 01:34:21;;;;;;;13.02;6.70;;;;;;;0.84;87.83;96520.25;5049535;28;20057;-72
2021/03/17 01:36:47;;;;;;;12.07;6.40;;;;;;;0.76;87.95;96516.16;5050646;28;20132;-72
2021/03/17 01:39:13;;;;;;;11.88;7.22;;;;;;;0.67;88.02;96512.28;5049235;28;20132;-72
2021/03/17 01:41:39;;;;;;;10.73;6.32;;;;;;;0.62;88.20;96512.22;5050884;28;20151;-73
2021/03/17 01:44:06;;;;;;;10.77;6.40;;;;;;;0.64;88.06;96502.09;5049119;28;20534;-73
2021/03/17 01:46:33;;;;;;;11.52;5.88;;;;;;;0.61;87.94;96507.94;5050758;28;20052;-73
2021/03/17 01:48:59;;;;;;;12.73;6.00;;;;;;;0.59;87.89;96510.06;5066076;28;20514;-73
2021/03/17 01:51:25;;;;;;;11.10;5.45;;;;;;;0.59;87.96;96506.56;5067768;28;20500;-73
2021/03/17 01:53:51;;;;;;;11.55;6.25;;;;;;;0.56;87.80;96505.19;5069908;28;20055;-73
2021/03/17 01:56:17;;;;;;;10.73;5.60;;;;;;;0.46;88.01;96495.16;5069485;28;20049;-73
2021/03/17 01:58:43;;;;;;;9.20;5.25;;;;;;;0.51;88.13;96503.25;5053264;28;20041;-72
2021/03/17 02:01:09;;;;;;;9.40;5.68;;;;;;;0.48;88.17;96502.97;5049022;28;20045;-73
2021/03/17 02:03:36;;;;;;;12.25;5.97;;;;;;;0.47;88.18;96504.00;5050594;28;20052;-73
2021/03/17 02:06:03;;;;;;;11.82;5.82;;;;;;;0.55;88.38;96508.94;5048862;28;20041;-73
2021/03/17 02:08:31;;;;;;;11.20;5.80;;;;;;;0.63;88.35;96505.84;5050472;28;20056;-73
2021/03/17 02:10:58;;;;;;;11.50;5.63;;;;;;;0.74;88.12;96506.75;5049301;28;20407;-73
2021/03/17 02:13:41;;;;;;;11.90;5.93;;;;;;;0.83;87.99;96499.84;5049760;28;20041;-73
2021/03/17 02:16:13;;;;;;;12.82;5.80;;;;;;;0.89;87.69;96500.72;5049322;28;20045;-73
2021/03/17 02:18:51;;;;;;;10.55;5.68;;;;;;;0.91;87.30;96491.38;5063378;28;20041;-72
2021/03/17 02:21:49;;;;;;;11.20;5.80;;;;;;;0.96;87.10;96495.97;5067587;28;20045;-73
2021/03/17 02:24:20;;;;;;;9.93;5.53;;;;;;;0.98;86.69;96493.84;5069936;28;20048;-73
2021/03/17 02:27:32;;;;;;;10.23;5.38;;;;;;;1.03;86.36;96499.25;5069428;28;20052;-72
2021/03/17 02:30:37;;;;;;;9.18;5.57;;;;;;;1.03;86.10;96489.34;5016390;28;20045;-73
2021/03/17 02:33:45;;;;;;;10.43;5.57;;;;;;;1.03;86.18;96480.47;5049472;28;20041;-73
2021/03/17 02:36:14;;;;;;;10.10;5.82;;;;;;;1.08;86.23;96477.84;5052992;28;20058;-72
2021/03/17 02:38:48;;;;;;;11.05;5.72;;;;;;;1.04;86.00;96466.00;5053645;28;20045;-72
2021/03/17 02:41:20;;;;;;;11.27;6.25;;;;;;;1.02;86.12;96470.81;5052612;28;20118;-73
2021/03/17 02:43:47;;;;;;;10.90;6.22;;;;;;;1.01;86.17;96475.38;5054044;28;20048;-72
2021/03/17 02:46:16;;;;;;;9.32;5.80;;;;;;;1.01;86.18;96474.56;5052407;28;20045;-73
2021/03/17 02:48:46;;;;;;;14.77;6.63;;;;;;;0.96;86.20;96478.03;5068151;28;20044;-74
2021/03/17 02:51:21;;;;;;;10.20;6.55;;;;;;;1.04;86.26;96474.06;5070142;28;20049;-73
2021/03/17 02:53:50;;;;;;;10.45;5.97;;;;;;;1.11;86.27;96477.34;5073258;28;20044;-72
2021/03/17 02:56:16;;;;;;;11.80;5.95;;;;;;;1.17;86.21;96479.00;5072545;28;20052;-72
2021/03/17 02:58:44;;;;;;;11.30;6.50;;;;;;;1.23;86.07;96478.00;5056080;28;20091;-73
2021/03/17 03:01:14;;;;;;;11.32;6.65;;;;;;;1.30;85.69;96469.72;5052777;28;20055;-72
2021/03/17 03:03:40;;;;;;;12.40;6.68;;;;;;;1.38;85.58;96471.94;5052234;28;20052;-72
2021/03/17 03:06:09;;;;;;;11.18;6.05;;;;;;;1.43;85.35;96474.66;5053305;28;20454;-73
2021/03/17 03:08:38;;;;;;;10.38;6.07;;;;;;;1.46;85.08;96470.66;5052421;28;20049;-72
2021/03/17 03:11:06;;;;;;;10.68;6.00;;;;;;;1.50;85.14;96477.13;5052773;28;20075;-73
2021/03/17 03:13:34;;;;;;;10.05;5.95;;;;;;;1.38;84.83;96480.00;5052301;28;20496;-73
2021/03/17 03:16:01;;;;;;;9.60;6.00;;;;;;;1.38;84.76;96468.44;5052830;28;20087;-72
2021/03/17 03:18:29;;;;;;;11.73;6.32;;;;;;;1.30;84.92;96473.25;5064608;28;20040;-73
2021/03/17 03:20:56;;;;;;;12.73;7.10;;;;;;;1.20;84.96;96475.84;5072216;28;20045;-73
2021/03/17 03:23:24;;;;;;;12.18;6.80;;;;;;;1.08;85.07;96475.16;5071693;28;20056;-73
2021/03/17 03:25:51;;;;;;;13.98;7.13;;;;;;;1.03;85.30;96472.44;5071905;28;20066;-72
2021/03/17 03:28:20;;;;;;;15.57;7.57;;;;;;;0.98;85.65;96475.06;5059278;28;20063;-73
2021/03/17 03:30:49;;;;;;;13.02;7.00;;;;;;;1.01;85.71;96470.03;5051851;28;20047;-73
2021/03/17 03:33:16;;;;;;;13.35;6.82;;;;;;;1.01;85.83;96471.91;5052405;28;20052;-73
2021/03/17 03:35:43;;;;;;;16.05;7.18;;;;;;;1.03;85.91;96472.44;5051930;28;20389;-73
2021/03/17 03:38:10;;;;;;;12.48;6.05;;;;;;;1.09;85.79;96473.28;5052057;28;20424;-73
2021/03/17 03:40:37;;;;;;;11.63;6.20;;;;;;;1.12;85.87;96470.91;5052325;28;20064;-73
2021/03/17 03:43:04;;;;;;;14.90;6.72;;;;;;;1.14;85.57;96463.41;5051498;28;20044;-73
2021/03/17 03:45:30;;;;;;;14.13;5.93;;;;;;;1.13;85.35;96461.81;5045578;28;20052;-72
2021/03/17 03:47:56;;;;;;;11.27;5.30;;;;;;;1.12;85.21;96470.91;5051523;28;20123;-72
2021/03/17 03:50:43;;;;;;;8.82;4.82;;;;;;;1.09;85.32;96466.06;5052276;28;20052;-73
2021/03/17 03:53:15;;;;;;;9.68;5.28;;;;;;;1.08;85.14;96469.81;4998973;28;20057;-73
2021/03/17 03:55:54;;;;;;;9.15;5.15;;;;;;;1.03;85.39;96469.75;5010125;28;20073;-72
2021/03/17 03:58:28;;;;;;;11.55;5.57;;;;;;;0.96;85.54;96478.03;5008612;28;20054;-73
2021/03/17 04:00:59;;;;;;;10.30;5.45;;;;;;;0.92;85.85;96476.09;5009202;28;20049;-72
2021/03/17 04:03:27;;;;;;;11.90;6.40;;;;;;;0.94;85.98;96471.28;5009516;28;20099;-73
2021/03/17 04:05:55;;;;;;;11.75;6.45;;;;;;;0.94;86.10;96471.28;5008830;28;20053;-72
2021/03/17 04:08:25;;;;;;;12.75;6.10;;;;;;;0.98;86.15;96485.81;5009368;28;20425;-72
2021/03/17 04:10:56;;;;;;;12.00;6.32;;;;;;;1.03;86.07;96483.16;5022506;28;20053;-72
2021/03/17 04:13:24;;;;;;;12.82;7.05;;;;;;;1.07;85.77;96486.16;5051594;28;20055;-73
2021/03/17 04:15:54;;;;;;;14.48;7.57;;;;;;;1.03;85.61;96496.56;5051276;28;20439;-73
2021/03/17 04:18:21;;;;;;;14.70;7.45;;;;;;;1.04;85.79;96490.97;5050798;28;20049;-73
2021/03/17 04:20:53;;;;;;;17.15;8.50;;;;;;;1.07;85.78;96489.66;5051666;28;20048;-73
2021/03/17 04:23:23;;;;;;;17.30;9.18;;;;;;;1.10;85.66;96489.16;5060643;28;20048;-72
2021/03/17 04:25:51;;;;;;;17.05;8.98;;;;;;;1.10;85.70;96483.78;5071773;28;20036;-72
2021/03/17 04:28:21;;;;;;;17.52;9.00;;;;;;;1.12;85.68;96492.38;5056754;28;20049;-72
2021/03/17 04:30:48;;;;;;;22.75;11.13;;;;;;;1.10;85.63;96489.16;5051939;28;20041;-72
2021/03/17 04:33:15;;;;;;;20.35;10.43;;;;;;;1.09;85.66;96486.69;5050265;28;20045;-73
2021/03/17 04:35:42;;;;;;;23.17;11.50;;;;;;;1.11;85.63;96485.41;5051258;28;20159;-72
2021/03/17 04:38:09;;;;;;;22.95;11.63;;;;;;;1.14;85.56;96489.44;5050481;28;20045;-72
2021/03/17 04:40:37;;;;;;;23.27;11.13;;;;;;;1.09;85.54;96489.38;5051079;28;20041;-72
2021/03/17 04:43:04;;;;;;;23.15;11.30;;;;;;;1.14;85.78;96484.06;5050647;28;20053;-73
2021/03/17 04:45:32;;;;;;;22.30;11.23;;;;;;;1.14;85.60;96494.78;5050746;28;20385;-72
2021/03/17 04:48:00;;;;;;;22.58;11.43;;;;;;;1.14;85.62;96490.25;5051389;28;20049;-72
2021/03/17 04:50:28;;;;;;;24.40;11.57;;;;;;;1.16;85.43;96488.13;5051179;28;20404;-73
2021/03/17 04:52:54;;;;;;;23.45;11.35;;;;;;;1.18;85.58;96486.00;5058565;28;20079;-73
2021/03/17 04:55:21;;;;;;;24.33;12.18;;;;;;;1.20;85.20;96489.25;5069779;28;20435;-72
2021/03/17 04:57:48;;;;;;;23.73;12.05;;;;;;;1.23;85.16;96494.09;5061115;28;20101;-73
2021/03/17 05:00:16;;;;;;;24.35;11.43;;;;;;;1.23;85.00;96488.72;5050050;28;20458;-73
2021/03/17 05:02:48;;;;;;;27.10;12.50;;;;;;;1.21;84.92;96482.81;5050444;28;20582;-72
2021/03/17 05:05:15;;;;;;;23.80;11.60;;;;;;;1.23;85.12;96494.09;5050398;28;20037;-72
2021/03/17 05:07:43;;;;;;;26.70;12.75;;;;;;;1.26;85.14;96490.09;5050304;28;20060;-73
2021/03/17 05:10:11;;;;;;;26.77;12.18;;;;;;;1.32;85.07;96488.25;5050616;28;20389;-73
2021/03/17 05:12:38;;;;;;;27.85;12.40;;;;;;;1.35;84.88;96490.41;5049730;28;20052;-72
2021/03/17 05:15:06;;;;;;;26.30;12.80;;;;;;;1.31;84.51;96484.78;5050561;28;20409;-73
2021/03/17 05:17:33;;;;;;;24.58;12.52;;;;;;;1.24;84.63;96490.34;5049867;28;20040;-73
2021/03/17 05:20:00;;;;;;;28.83;12.77;;;;;;;1.25;84.71;96491.13;5051007;28;20045;-72
2021/03/17 05:22:27;;;;;;;27.48;13.13;;;;;;;1.29;84.88;96489.56;5052638;28;20048;-72
2021/03/17 05:24:53;;;;;;;27.48;13.18;;;;;;;1.30;84.68;96489.34;5070647;28;20040;-72
2021/03/17 05:27:21;;;;;;;27.98;13.98;;;;;;;1.22;84.69;96497.84;5064225;28;20060;-72
2021/03/17 05:29:48;;;;;;;28.58;14.25;;;;;;;1.19;84.89;96492.16;5049988;28;20045;-72
2021/03/17 05:32:16;;;;;;;26.23;13.60;;;;;;;1.18;84.94;96493.22;5050309;28;20049;-72
2021/03/17 05:34:55;;;;;;;26.95;13.77;;;;;;;1.24;85.17;96495.69;5049615;28;20094;-72
2021/03/17 05:37:22;;;;;;;26.08;13.45;;;;;;;1.27;85.09;96500.56;5050464;28;20102;-72
2021/03/17 05:39:48;;;;;;;32.47;14.02;;;;;;;1.32;85.02;96491.75;5049582;28;20048;-72
2021/03/17 05:42:15;;;;;;;27.02;13.45;;;;;;;1.36;84.77;96497.41;5050114;28;20041;-73
2021/03/17 05:44:41;;;;;;;31.63;14.98;;;;;;;1.37;84.72;96504.41;5049817;28;20451;-72
2021/03/17 05:47:07;;;;;;;32.35;14.32;;;;;;;1.40;84.58;96507.38;5049668;28;20099;-72
2021/03/17 05:49:34;;;;;;;31.60;15.20;;;;;;;1.43;84.51;96506.06;5049754;28;20045;-72
2021/03/17 05:52:01;;;;;;;30.98;14.73;;;;;;;1.45;84.67;96510.09;5049389;28;20052;-72
2021/03/17 05:54:28;;;;;;;30.50;15.32;;;;;;;1.49;84.49;96505.84;5070082;28;20052;-73
2021/03/17 05:56:55;;;;;;;32.40;14.63;;;;;;;1.55;84.43;96506.69;5067517;28;20474;-72
2021/03/17 05:59:22;;;;;;;34.13;14.98;;;;;;;1.59;84.31;96507.78;5050189;28;20142;-72
2021/03/17 06:01:48;;;;;;;35.53;16.30;;;;;;;1.67;84.41;96507.34;5049471;28;20053;-72
2021/03/17 06:04:16;;;;;;;34.80;15.38;;;;;;;1.71;84.23;96500.38;5050066;28;20133;-72
2021/03/17 06:06:44;;;;;;;30.58;15.55;;;;;;;1.79;84.17;96501.78;5049432;28;20041;-72
2021/03/17 06:09:12;;;;;;;33.42;15.35;;;;;;;1.86;84.03;96504.22;5052281;28;20404;-72
2021/03/17 06:11:40;;;;;;;34.40;15.93;;;;;;;1.90;83.87;96502.66;5053828;28;20041;-72
2021/03/17 06:14:10;;;;;;;30.20;14.55;;;;;;;1.92;83.70;96512.03;5053368;28;20048;-73
2021/03/17 06:16:39;;;;;;;26.70;13.43;;;;;;;1.86;83.20;96512.28;5054218;28;20053;-72
2021/03/17 06:19:07;;;;;;;27.75;14.35;;;;;;;1.85;83.21;96514.16;5052458;28;20045;-73
2021/03/17 06:21:33;;;;;;;26.73;14.05;;;;;;;1.82;83.09;96520.03;5054301;28;20041;-72
2021/03/17 06:24:00;;;;;;;29.60;13.95;;;;;;;1.83;83.09;96524.38;5053717;28;20060;-72
2021/03/17 06:26:26;;;;;;;30.33;14.40;;;;;;;1.79;82.99;96534.00;5053693;28;20487;-72
2021/03/17 06:28:54;;;;;;;27.13;13.50;;;;;;;1.76;82.73;96537.97;5052905;28;20075;-72
2021/03/17 06:31:20;;;;;;;24.17;13.50;;;;;;;1.77;82.71;96531.53;5053440;28;20056;-71
2021/03/17 06:33:46;;;;;;;25.95;13.02;;;;;;;1.78;82.78;96538.56;5053360;28;20080;-72
2021/03/17 06:36:14;;;;;;;28.83;14.50;;;;;;;1.82;82.71;96542.31;5053215;28;20049;-71
2021/03/17 06:38:41;;;;;;;26.73;13.65;;;;;;;1.85;82.54;96546.38;5053579;28;20056;-72
2021/03/17 06:41:07;;;;;;;28.05;13.48;;;;;;;1.87;82.33;96557.66;5052725;28;20048;-72
2021/03/17 06:43:38;;;;;;;28.33;13.82;;;;;;;1.89;82.45;96554.75;5053785;28;20441;-72
2021/03/17 06:46:06;;;;;;;25.05;13.80;;;;;;;1.93;82.40;96558.50;5052397;28;20045;-73
2021/03/17 06:48:32;;;;;;;25.33;13.45;;;;;;;1.97;82.30;96552.38;5054028;28;20045;-72
2021/03/17 06:51:07;;;;;;;31.33;13.95;;;;;;;2.04;82.31;96555.66;5052134;28;20048;-72
2021/03/17 06:53:42;;;;;;;26.35;14.10;;;;;;;2.05;82.10;96553.78;5029827;28;20049;-82
2021/03/17 06:56:16;;;;;;;26.95;13.23;;;;;;;2.07;82.11;96551.63;5028143;28;20527;-81
2021/03/17 06:58:44;;;;;;;23.80;13.25;;;;;;;2.05;81.83;96564.53;5029598;28;20084;-76
2021/03/17 07:01:32;;;;;;;26.25;13.05;;;;;;;2.03;81.29;96555.91;5030063;28;20087;-76
2021/03/17 07:04:00;;;;;;;25.10;13.00;;;;;;;2.09;81.16;96562.94;5029354;28;20127;-76
2021/03/17 07:06:26;;;;;;;26.35;12.82;;;;;;;2.13;81.28;96564.03;5029639;28;20049;-76
2021/03/17 07:08:53;;;;;;;28.95;13.18;;;;;;;2.12;81.06;96569.66;5028772;28;20041;-76
2021/03/17 07:11:24;;;;;;;27.02;14.35;;;;;;;2.14;81.49;96565.66;5029611;28;20045;-77
2021/03/17 07:13:58;;;;;;;27.88;12.63;;;;;;;2.21;81.35;96563.53;5029865;28;20094;-76
2021/03/17 07:16:38;;;;;;;27.10;13.07;;;;;;;2.27;81.28;96573.25;5028624;28;20068;-75
2021/03/17 07:19:06;;;;;;;25.20;13.48;;;;;;;2.23;81.06;96566.78;5028011;28;20394;-75
2021/03/17 07:21:34;;;;;;;27.40;14.05;;;;;;;2.28;81.09;96571.38;5027601;28;20046;-75
2021/03/17 07:24:01;;;;;;;25.20;14.15;;;;;;;2.35;81.29;96575.47;5030095;28;20049;-77
2021/03/17 07:26:28;;;;;;;27.85;14.45;;;;;;;2.45;81.49;96569.31;5028054;28;20065;-75
2021/03/17 07:29:03;;;;;;;29.33;15.55;;;;;;;2.54;81.09;96567.75;5029207;28;20045;-75
2021/03/17 07:31:32;;;;;;;26.40;14.48;;;;;;;2.54;79.97;96569.63;5040515;28;20052;-75
2021/03/17 07:34:13;;;;;;;29.20;14.27;;;;;;;2.51;79.68;96578.25;5049104;28;20045;-76
2021/03/17 07:36:43;;;;;;;29.52;15.48;;;;;;;2.42;79.79;96574.41;5048785;28;20041;-75
2021/03/17 07:39:12;;;;;;;31.13;15.68;;;;;;;2.35;80.11;96569.28;5048173;28;20055;-76
2021/03/17 07:41:39;;;;;;;30.13;16.27;;;;;;;2.32;80.30;96584.03;5049855;28;20393;-76
2021/03/17 07:44:08;;;;;;;33.00;16.52;;;;;;;2.32;80.44;96575.97;5048049;28;20053;-75
2021/03/17 07:46:36;;;;;;;32.03;16.30;;;;;;;2.30;80.36;96580.81;5049064;28;20059;-75
2021/03/17 07:49:02;;;;;;;30.92;15.48;;;;;;;2.28;80.14;96580.25;5048231;28;20053;-75
2021/03/17 07:51:33;;;;;;;30.00;14.77;;;;;;;2.20;79.97;96583.44;5044752;28;20675;-76
2021/03/17 07:54:02;;;;;;;30.33;15.18;;;;;;;2.15;80.19;96586.09;5028910;28;20054;-76
2021/03/17 07:56:28;;;;;;;30.10;17.00;;;;;;;2.14;80.64;96584.47;5027953;28;20045;-76
2021/03/17 07:58:55;;;;;;;31.38;15.40;;;;;;;2.21;80.82;96584.22;5047522;28;20080;-75
2021/03/17 08:01:23;;;;;;;29.65;15.45;;;;;;;2.23;80.55;96593.63;5047407;28;21356;-76
2021/03/17 08:03:51;;;;;;;27.58;14.13;;;;;;;2.14;79.47;96589.84;5049485;28;20041;-75
2021/03/17 08:06:19;;;;;;;27.02;14.32;;;;;;;2.10;79.79;96594.09;5046653;28;20106;-75
2021/03/17 08:08:47;;;;;;;27.00;15.23;;;;;;;2.07;80.09;96592.72;5054644;28;20045;-75
2021/03/17 08:11:16;;;;;;;26.55;14.25;;;;;;;2.07;80.65;96595.41;5047460;28;20053;-76
2021/03/17 08:13:43;;;;;;;27.40;14.82;;;;;;;2.12;80.79;96600.00;5048712;28;20048;-76
2021/03/17 08:16:12;;;;;;;26.73;14.95;;;;;;;2.11;80.38;96601.09;5047704;28;20053;-76
2021/03/17 08:18:43;;;;;;;24.02;13.30;;;;;;;2.08;80.08;96602.41;5048055;28;20053;-75
2021/03/17 08:21:10;;;;;;;27.15;14.30;;;;;;;1.99;80.39;96592.41;5048308;28;20052;-75
2021/03/17 08:23:42;;;;;;;28.48;14.35;;;;;;;2.06;80.61;96601.06;5046777;28;20045;-74
2021/03/17 08:26:12;;;;;;;27.13;14.77;;;;;;;2.09;80.53;96590.63;5047930;28;20044;-75
2021/03/17 08:28:49;;;;;;;28.13;14.32;;;;;;;2.15;80.58;96591.44;5047707;28;20045;-75
2021/03/17 08:31:50;;;;;;;28.05;15.40;;;;;;;2.25;81.08;96590.72;5047706;28;20044;-76
2021/03/17 08:34:24;;;;;;;28.20;14.98;;;;;;;2.38;81.01;96586.75;5047880;28;20052;-76
2021/03/17 08:36:52;;;;;;;35.70;16.25;;;;;;;2.48;81.04;96586.81;5047190;28;20158;-76
2021/03/17 08:39:47;;;;;;;30.83;15.55;;;;;;;2.62;80.99;96585.28;5048331;28;20416;-76
2021/03/17 08:42:27;;;;;;;29.88;14.77;;;;;;;2.66;80.64;96580.97;5046964;28;20045;-75
2021/03/17 08:44:54;;;;;;;28.90;14.40;;;;;;;2.73;80.25;96581.56;5047896;28;20072;-75
2021/03/17 08:47:23;;;;;;;27.50;14.45;;;;;;;2.83;80.26;96586.19;5047191;28;20130;-76
2021/03/17 08:49:50;;;;;;;25.67;14.40;;;;;;;2.85;79.94;96579.44;5047546;28;20049;-75
2021/03/17 08:52:19;;;;;;;26.45;13.77;;;;;;;2.89;79.47;96574.38;5047589;28;20049;-75
2021/03/17 08:54:59;;;;;;;24.63;14.27;;;;;;;2.92;79.13;96586.47;5047080;28;20504;-74
2021/03/17 08:57:50;;;;;;;33.75;16.98;;;;;;;3.28;80.26;96580.13;5047504;28;20051;-75
2021/03/17 09:00:42;;;;;;;27.23;13.10;;;;;;;3.86;78.56;96588.84;5047203;28;20048;-73
2021/03/17 09:03:08;;;;;;;24.88;12.40;;;;;;;4.05;76.64;96578.31;5047020;28;20929;-73
2021/03/17 09:05:34;;;;;;;18.80;11.70;;;;;;;3.87;73.65;96584.25;5047745;28;20045;-75
2021/03/17 09:08:03;;;;;;;22.20;12.45;;;;;;;3.94;74.73;96584.78;5046970;28;20048;-75
2021/03/17 09:10:40;;;;;;;22.02;11.98;;;;;;;4.30;74.92;96576.66;5047887;28;20036;-73
2021/03/17 09:13:07;;;;;;;20.10;10.82;;;;;;;4.21;73.50;96578.28;5046823;28;20526;-74
2021/03/17 09:15:43;;;;;;;23.98;11.95;;;;;;;4.08;72.22;96577.78;5047738;28;20148;-74
2021/03/17 09:18:10;;;;;;;19.13;11.50;;;;;;;3.95;73.04;96577.50;5046926;28;20060;-74
2021/03/17 09:20:40;;;;;;;21.67;11.50;;;;;;;3.84;73.57;96574.81;5047206;28;20527;-74
2021/03/17 09:23:09;;;;;;;18.95;11.45;;;;;;;3.74;72.22;96569.41;5046972;28;20064;-76
2021/03/17 09:25:39;;;;;;;22.48;12.15;;;;;;;3.57;75.18;96576.94;5046718;28;20446;-74
2021/03/17 09:28:08;;;;;;;23.30;11.55;;;;;;;3.71;76.21;96578.06;5047182;28;20056;-74
2021/03/17 09:30:41;;;;;;;21.73;11.15;;;;;;;3.93;75.22;96578.59;5046456;28;20045;-73
2021/03/17 09:33:08;;;;;;;;;;;;;;;4.10;72.48;96572.91;5047561;28;20064;-73
2021/03/17 09:35:35;;;;;;;17.13;9.57;;;;;;;4.33;73.80;96576.94;5046432;28;19932;-74
2021/03/17 09:38:05;;;;;;;17.95;9.93;;;;;;;4.43;70.57;96565.31;5046835;28;20041;-73
2021/03/17 09:40:34;;;;;;;18.27;9.85;;;;;;;4.54;72.26;96571.47;5046864;28;20139;-74
2021/03/17 09:43:00;;;;;;;16.23;9.80;;;;;;;4.48;68.55;96572.56;5046408;28;20053;-73
2021/03/17 09:45:27;;;;;;;19.42;10.40;;;;;;;4.36;69.78;96564.78;5045236;28;20053;-73
2021/03/17 09:47:57;;;;;;;18.60;10.63;;;;;;;4.40;71.25;96566.69;5046099;28;20068;-73
2021/03/17 09:50:25;;;;;;;19.88;10.77;;;;;;;4.21;70.44;96572.91;5046822;28;20045;-73
2021/03/17 09:52:51;;;;;;;20.05;9.85;;;;;;;3.88;69.63;96570.50;5045786;28;20126;-73
2021/03/17 09:55:31;;;;;;;19.13;11.10;;;;;;;3.69;72.72;96577.50;5046602;28;20048;-73
2021/03/17 09:58:02;;;;;;;13.35;8.00;;;;;;;3.30;74.15;96591.44;5046312;28;20435;-73
2021/03/17 10:00:30;;;;;;;11.80;6.15;;;;;;;2.71;75.69;96593.63;5046684;28;20040;-73
2021/03/17 10:03:00;;;;;;;10.32;5.85;;;;;;;2.38;76.72;96594.81;5046715;28;20415;-73
2021/03/17 10:05:27;;;;;;;11.27;5.50;;;;;;;2.12;77.77;96588.47;5045954;28;20059;-76
2021/03/17 10:07:54;;;;;;;9.77;5.03;;;;;;;1.93;78.49;96582.69;5047001;28;20061;-74
2021/03/17 10:10:21;;;;;;;15.25;5.95;;;;;;;1.83;79.30;96589.59;5045519;28;20635;-74
2021/03/17 10:12:48;;;;;;;13.57;4.95;;;;;;;1.79;79.83;96588.50;5047323;28;20053;-73
2021/03/17 10:15:16;;;;;;;11.80;4.65;;;;;;;1.80;80.28;96583.94;5045408;28;20049;-76
2021/03/17 10:17:44;;;;;;;9.43;4.32;;;;;;;1.87;80.53;96584.50;5047173;28;20059;-73
2021/03/17 10:20:12;;;;;;;12.35;4.68;;;;;;;1.94;80.96;96584.31;5045852;28;20107;-74
2021/03/17 10:22:38;;;;;;;14.40;4.97;;;;;;;2.32;82.06;96575.16;5045880;28;20757;-74
2021/03/17 10:25:10;;;;;;;10.35;4.30;;;;;;;2.89;80.86;96574.38;5045924;28;20045;-73
2021/03/17 10:27:39;;;;;;;9.32;4.07;;;;;;;3.22;77.49;96573.13;5044672;28;20492;-73
2021/03/17 10:30:08;;;;;;;8.45;4.68;;;;;;;3.69;78.00;96574.81;5046414;28;20049;-73
2021/03/17 10:32:36;;;;;;;7.35;3.75;;;;;;;4.04;76.67;96568.63;5045033;28;20057;-74
2021/03/17 10:35:06;;;;;;;8.77;5.22;;;;;;;4.40;78.23;96566.69;5046525;28;20568;-73
2021/03/17 10:37:33;;;;;;;8.20;5.00;;;;;;;4.71;75.78;96562.00;5046222;28;20052;-74
2021/03/17 10:40:09;;;;;;;11.35;4.90;;;;;;;5.05;75.42;96566.72;5046952;28;20048;-74
2021/03/17 10:42:42;;;;;;;11.10;4.53;;;;;;;5.07;71.09;96558.34;5046044;28;20510;-74
2021/03/17 10:45:11;;;;;;;8.77;4.13;;;;;;;5.04;71.29;96557.00;5045921;28;20099;-74
2021/03/17 10:47:38;;;;;;;9.57;5.65;;;;;;;5.12;70.38;96551.03;5046654;28;20057;-74
2021/03/17 10:50:08;;;;;;;8.57;4.70;;;;;;;5.33;70.86;96551.72;5045706;28;20055;-73
2021/03/17 10:52:36;;;;;;;7.85;4.95;;;;;;;5.45;68.98;96544.06;5046289;28;20048;-73
2021/03/17 10:55:14;;;;;;;12.90;5.80;;;;;;;5.59;70.25;96540.75;5047366;28;20045;-73
2021/03/17 10:57:40;;;;;;;12.63;6.25;;;;;;;5.62;70.26;96542.88;5050163;28;20056;-74
2021/03/17 11:00:21;;;;;;;10.55;6.85;;;;;;;5.53;68.53;96541.84;5048877;28;20052;-73
2021/03/17 11:02:48;;;;;;;11.25;6.43;;;;;;;5.57;67.19;96545.63;5049778;28;20126;-73
2021/03/17 11:05:31;;;;;;;13.18;6.38;;;;;;;5.40;65.97;96544.13;5049526;28;20053;-74
2021/03/17 11:08:06;;;;;;;10.60;6.22;;;;;;;5.22;67.40;96542.88;5049208;28;20056;-74
2021/03/17 11:10:46;;;;;;;14.13;7.53;;;;;;;5.12;67.41;96544.84;5049985;28;20051;-74
2021/03/17 11:13:32;;;;;;;11.32;6.82;;;;;;;5.02;67.59;96528.69;5048569;28;20100;-73
2021/03/17 11:16:02;;;;;;;12.50;7.40;;;;;;;4.95;68.05;96540.56;5049754;28;20071;-74
2021/03/17 11:18:30;;;;;;;12.55;7.18;;;;;;;4.93;69.51;96537.34;5048998;28;20091;-74
2021/03/17 11:20:59;;;;;;;14.57;7.93;;;;;;;4.82;69.05;96533.09;5049373;28;20500;-73
2021/03/17 11:23:27;;;;;;;15.90;7.20;;;;;;;4.60;69.67;96538.84;5048879;28;20045;-73
2021/03/17 11:25:55;;;;;;;13.25;7.70;;;;;;;4.51;71.23;96531.59;5048582;28;20110;-75
2021/03/17 11:28:23;;;;;;;14.20;8.23;;;;;;;4.50;71.94;96528.09;5049161;28;20061;-76
2021/03/17 11:30:51;;;;;;;14.90;7.85;;;;;;;4.42;70.94;96532.16;5049098;28;20048;-76
2021/03/17 11:33:19;;;;;;;9.95;6.05;;;;;;;3.95;73.48;96537.09;5048975;28;20056;-76
2021/03/17 11:35:46;;;;;;;9.73;4.45;;;;;;;3.56;73.70;96534.97;5048574;28;20524;-75
2021/03/17 11:38:13;;;;;;;8.88;4.30;;;;;;;3.08;74.93;96537.84;5050065;28;20072;-75
2021/03/17 11:40:40;;;;;;;8.07;4.47;;;;;;;2.82;75.87;96541.53;5052318;28;20400;-75
2021/03/17 11:43:09;;;;;;;10.38;4.95;;;;;;;2.59;77.70;96534.72;5051449;28;20051;-75